• Join FlightAware (Why Join?)
  • Login
  • US Flag 
03:06AM EDT


 

Airport Tracker/Info


-or-


 

Live Flight TrackerFlight Track Log ✈ UAL4849 ✈ 18-Apr-2013 ✈ KROC - KEWR

Flight Track Log - Related Links

Times and Time Zones

All times are in EDT time to prevent confusion due to time zone crossing. See the UAL4849 flight status page for this flight to view local times or setup timezone preferences in your user account.

Time Position Orientation Groundspeed Altitude Reporting Facility
EDT Latitude Longitude Course Direction KTS MPH feet Rate Location/Type
10:35AM 43.1014 -77.6942 216° Southwest 119 137 1,100  Level Cleveland Center
10:36AM 43.0831 -77.7122 216° Southwest 128 147 2,000 1,140 Climbing Cleveland Center
10:38AM 43.0267 -77.6181 129° Southeast 164 189 4,200 1,140 Climbing Cleveland Center
10:39AM 43.0061 -77.5539 114° Southeast 179 206 5,500 1,080 Climbing Cleveland Center
10:40AM 42.9792 -77.4814 117° Southeast 184 212 6,400 900 Climbing Cleveland Center
10:41AM 42.9564 -77.4058 112° Southeast 197 227 7,400 1,080 Climbing Cleveland Center
10:43AM 42.9156 -77.2717 113° Southeast 221 254 9,500 1,080 Climbing New York Center
10:44AM 42.8942 -77.2044 113° Southeast 221 254 10,400 960 Climbing New York Center
10:45AM 42.8669 -77.1281 116° Southeast 221 254 11,400 900 Climbing New York Center
10:46AM 42.8442 -77.0497 112° Southeast 221 254 12,300 780 Climbing New York Center
10:47AM 42.8169 -76.9736 116° Southeast 221 254 13,000 300 Climbing New York Center
10:48AM 42.7814 -76.8967 122° Southeast 226 260 13,000  Level New York Center
10:49AM 42.7442 -76.8114 121° Southeast 246 283 13,000  Level New York Center
10:50AM 42.7050 -76.7203 120° Southeast 264 304 13,000  Level New York Center
10:51AM 42.6667 -76.6394 123° Southeast 267 307 13,000  Level Boston Center
10:52AM 42.6283 -76.5522 121° Southeast 262 302 13,000  Level Boston Center
10:53AM 42.5875 -76.4647 122° Southeast 267 307 13,000  Level Boston Center
10:54AM 42.5489 -76.3750 120° Southeast 267 307 13,000  Level Boston Center
10:55AM 42.5103 -76.2908 122° Southeast 267 307 13,000  Level Boston Center
10:56AM 42.4694 -76.2036 122° Southeast 267 307 13,000  Level Boston Center
10:57AM 42.4325 -76.1172 120° Southeast 267 307 13,000  Level Boston Center
10:58AM 42.3894 -76.0275 123° Southeast 277 319 13,000  Level Boston Center
10:59AM 42.3525 -75.9436 121° Southeast 270 311 13,000 -60 Level Boston Center
11:00AM 42.3136 -75.8572 121° Southeast 270 311 12,900 -60 Descending Boston Center
11:01AM 42.2761 -75.7822 124° Southeast 258 297 12,900  Level Boston Center
11:02AM 42.2331 -75.6875 122° Southeast 269 310 12,900  Level Boston Center
11:03AM 42.1939 -75.5986 121° Southeast 274 315 12,900  Level Boston Center
11:04AM 42.1525 -75.5125 123° Southeast 279 321 12,900  Level Boston Center
11:05AM 42.1150 -75.4267 120° Southeast 279 321 13,000  Climbing Boston Center
11:06AM 42.0756 -75.3436 123° Southeast 279 321 13,000  Level Boston Center
11:07AM 42.0364 -75.2494 119° Southeast 269 310 13,000  Level Boston Center
11:08AM 42.0031 -75.1558 116° Southeast 275 316 13,000  Level Boston Center
11:09AM 41.9678 -75.0678 118° Southeast 275 316 13,000  Level Boston Center
11:10AM 41.9342 -74.9769 116° Southeast 275 316 13,000 -600 Level Boston Center
11:11AM 41.8817 -74.9050 134° Southeast 270 311 11,900 -1,320 Descending Boston Center
11:12AM 41.8097 -74.8633 157° South 277 319 10,400 -1,380 Descending Boston Center
11:13AM 41.7397 -74.8161 153° Southeast 277 319 9,100 -1,200 Descending Boston Center
11:14AM 41.6761 -74.7692 151° Southeast 270 311 8,000 -600 Descending Boston Center
11:15AM 41.6100 -74.7392 161° South 255 293 8,000 -180 Level Boston Center
11:16AM 41.5458 -74.7203 168° South 242 278 7,700 -720 Descending Boston Center
11:18AM 41.4333 -74.6833 166° South 214 246 6,000 -660 Descending New York TRACON
11:19AM 41.3667 -74.6667 169° South 196 226 6,000 -180 Level New York TRACON
11:20AM 41.3167 -74.6333 153° Southeast 221 254 5,700 -540 Descending New York TRACON
11:21AM 41.2833 -74.5667 124° Southeast 243 280 5,000 -360 Descending New York TRACON
11:22AM 41.2333 -74.5000 135° Southeast 232 267 5,000  Level New York TRACON
11:23AM 41.1833 -74.4500 143° Southeast 230 265 5,000  Level New York TRACON
11:24AM 41.1167 -74.4500 180° South 210 242 5,000  Level New York TRACON
11:25AM 41.0667 -74.4333 166° South 218 251 5,000  Level New York TRACON
11:25AM 41.0333 -74.3833 131° Southeast 237 273 5,000  Level New York TRACON
11:26AM 41.0167 -74.3000 105° East 241 277 5,000 -60 Level New York TRACON
11:28AM 41.0000 -74.2000 102° East 239 275 4,900 -360 Descending New York TRACON
11:29AM 40.9667 -74.1333 123° Southeast 214 246 4,300 -660 Descending New York TRACON
11:30AM 40.9333 -74.1000 143° Southeast 195 224 3,600 -660 Descending New York TRACON
11:31AM 40.8833 -74.0667 153° Southeast 192 221 3,000 -540 Descending New York TRACON
11:32AM 40.8333 -74.0833 194° South 174 200 2,600 -480 Descending New York TRACON
11:32AM 40.7833 -74.1000 194° South 171 197 2,100 -840 Descending New York TRACON
11:33AM 40.7500 -74.1333 217° Southwest 162 186 1,100 -900 Descending New York TRACON
11:34AM 40.7167 -74.1500 201° Southwest 126 145 400 -720 Descending New York TRACON
11:36AM 40.6925 -74.1687 205° Southwest  Level Estimated
11:43AM 40.6925 -74.1687 205° Southwest  Level Estimated
11:44AM 40.6925 -74.1687 205° Southwest  Level Estimated